createdAt,value
2018-10-05T00:01:01.798Z,72.70
2018-10-05T00:03:30.013Z,72.70
2018-10-05T00:05:58.220Z,72.80
2018-10-05T00:08:26.651Z,73.10
2018-10-05T00:10:54.867Z,73.10
2018-10-05T00:13:23.080Z,73.00
2018-10-05T00:15:51.285Z,72.70
2018-10-05T00:18:19.477Z,72.60
2018-10-05T00:20:47.643Z,72.50
2018-10-05T00:23:15.846Z,72.50
2018-10-05T00:25:44.038Z,72.50
2018-10-05T00:28:12.283Z,72.50
2018-10-05T00:30:40.883Z,72.60
2018-10-05T00:33:09.078Z,72.70
2018-10-05T00:35:37.238Z,72.60
2018-10-05T00:38:05.637Z,72.60
2018-10-05T00:40:34.061Z,72.60
2018-10-05T00:43:02.230Z,72.60
2018-10-05T00:45:30.465Z,72.80
2018-10-05T00:47:58.712Z,73.00
2018-10-05T00:50:26.926Z,73.10
2018-10-05T00:52:55.372Z,73.50
2018-10-05T00:55:23.521Z,73.60
2018-10-05T00:57:51.749Z,73.60
2018-10-05T01:00:19.913Z,73.50
2018-10-05T01:02:48.146Z,73.50
2018-10-05T01:05:16.378Z,73.40
2018-10-05T01:07:44.574Z,73.30
2018-10-05T01:10:12.767Z,73.30
2018-10-05T01:12:40.967Z,73.10
2018-10-05T01:15:09.141Z,73.10
2018-10-05T01:17:37.624Z,73.00
2018-10-05T01:20:05.851Z,72.90
2018-10-05T01:22:34.097Z,72.90
2018-10-05T01:25:02.327Z,72.90
2018-10-05T01:27:30.557Z,73.00
2018-10-05T01:29:58.902Z,73.20
2018-10-05T01:32:27.102Z,73.20
2018-10-05T01:34:55.407Z,73.20
2018-10-05T01:37:23.604Z,73.20
2018-10-05T01:39:51.753Z,73.30
2018-10-05T01:42:20.090Z,73.40
2018-10-05T01:44:48.326Z,73.40
2018-10-05T01:47:16.533Z,73.50
2018-10-05T01:49:44.736Z,73.60
2018-10-05T01:52:12.929Z,73.60
2018-10-05T01:54:47.869Z,73.50
2018-10-05T01:57:16.042Z,73.60
2018-10-05T01:59:44.897Z,73.60
2018-10-05T02:02:13.110Z,73.80
2018-10-05T02:04:41.341Z,73.80
2018-10-05T02:07:09.542Z,74.00
2018-10-05T02:09:37.738Z,74.10
2018-10-05T02:12:06.091Z,74.20
2018-10-05T02:14:34.341Z,74.00
2018-10-05T02:17:02.514Z,73.70
2018-10-05T02:19:30.727Z,73.40
2018-10-05T02:21:59.060Z,73.30
2018-10-05T02:24:27.287Z,73.20
2018-10-05T02:26:55.544Z,73.10
2018-10-05T02:29:23.831Z,73.40
2018-10-05T02:31:52.328Z,73.40
2018-10-05T02:34:20.581Z,73.20
2018-10-05T02:36:48.798Z,73.10
2018-10-05T02:39:17.042Z,73.10
2018-10-05T02:41:45.321Z,73.10
2018-10-05T02:44:13.531Z,73.20
2018-10-05T02:46:42.625Z,73.30
2018-10-05T02:49:10.806Z,73.40
2018-10-05T02:51:39.074Z,73.60
2018-10-05T02:54:07.247Z,73.70
2018-10-05T02:56:37.411Z,74.10
2018-10-05T02:59:05.771Z,74.10
2018-10-05T03:01:45.910Z,74.00
2018-10-05T03:04:14.259Z,74.00
2018-10-05T03:06:42.473Z,74.20
2018-10-05T03:09:10.658Z,74.20
2018-10-05T03:11:38.870Z,74.20
2018-10-05T03:14:07.091Z,74.10
2018-10-05T03:16:35.278Z,73.90
2018-10-05T03:19:03.526Z,73.90
2018-10-05T03:21:32.264Z,73.80
2018-10-05T03:24:00.472Z,73.70
2018-10-05T03:26:28.674Z,73.70
2018-10-05T03:28:56.875Z,73.70
2018-10-05T03:31:25.142Z,73.70
2018-10-05T03:33:53.414Z,73.70
2018-10-05T03:36:21.683Z,73.70
2018-10-05T03:38:49.904Z,74.00
2018-10-05T03:41:18.070Z,74.00
2018-10-05T03:43:46.332Z,74.10
2018-10-05T03:46:14.564Z,74.10
2018-10-05T03:48:46.140Z,74.20
2018-10-05T03:51:14.392Z,74.30
2018-10-05T03:53:42.525Z,74.40
2018-10-05T03:56:10.980Z,74.40
2018-10-05T03:58:39.182Z,74.40
2018-10-05T04:01:07.403Z,74.40
2018-10-05T04:03:35.570Z,74.40
2018-10-05T04:06:03.779Z,74.30
2018-10-05T04:08:31.996Z,74.20
2018-10-05T04:11:00.181Z,74.20
2018-10-05T04:13:28.331Z,74.10
2018-10-05T04:15:56.550Z,74.00
2018-10-05T04:18:24.752Z,73.90
2018-10-05T04:20:52.903Z,73.80
2018-10-05T04:23:21.098Z,73.90
2018-10-05T04:25:49.326Z,74.00
2018-10-05T04:28:17.553Z,74.00
2018-10-05T04:30:45.795Z,74.00
2018-10-05T04:33:13.970Z,74.00
2018-10-05T04:35:42.194Z,74.10
2018-10-05T04:38:10.370Z,74.30
2018-10-05T04:40:38.583Z,74.30
2018-10-05T04:43:06.790Z,74.30
2018-10-05T04:45:35.025Z,74.30
2018-10-05T04:48:03.216Z,74.30
2018-10-05T04:50:31.425Z,74.30
2018-10-05T04:52:59.623Z,74.20
2018-10-05T04:55:27.856Z,74.20
2018-10-05T04:57:56.067Z,74.20
2018-10-05T05:00:24.272Z,74.30
2018-10-05T05:02:52.542Z,74.40
2018-10-05T05:05:20.745Z,74.60
2018-10-05T05:07:48.950Z,74.40
2018-10-05T05:10:17.200Z,74.30
2018-10-05T05:12:45.379Z,74.30
2018-10-05T05:15:13.646Z,74.30
2018-10-05T05:17:41.903Z,74.20
2018-10-05T05:20:10.122Z,74.30
2018-10-05T05:22:38.383Z,74.30
2018-10-05T05:25:06.547Z,74.20
2018-10-05T05:27:34.741Z,74.10
2018-10-05T05:30:02.908Z,74.20
2018-10-05T05:32:31.085Z,74.20
2018-10-05T05:34:59.304Z,74.20
2018-10-05T05:37:27.503Z,74.30
2018-10-05T05:39:55.707Z,74.30
2018-10-05T05:42:23.886Z,74.40
2018-10-05T05:44:52.109Z,74.50
2018-10-05T05:47:20.321Z,74.60
2018-10-05T05:49:48.492Z,74.70
2018-10-05T05:52:16.670Z,74.90
2018-10-05T05:54:44.871Z,74.90
2018-10-05T05:57:13.075Z,75.00
2018-10-05T05:59:41.315Z,75.00
2018-10-05T06:02:09.572Z,75.10
2018-10-05T06:04:37.778Z,75.20
2018-10-05T06:07:05.974Z,75.10
2018-10-05T06:09:34.151Z,75.20
2018-10-05T06:12:02.319Z,75.40
2018-10-05T06:14:30.465Z,75.40
2018-10-05T06:16:58.671Z,75.20
2018-10-05T06:19:26.862Z,74.60
2018-10-05T06:21:55.171Z,74.40
2018-10-05T06:24:23.351Z,74.30
2018-10-05T06:26:51.509Z,74.20
2018-10-05T06:29:19.766Z,74.30
2018-10-05T06:31:48.980Z,74.40
2018-10-05T06:34:17.169Z,74.60
2018-10-05T06:36:45.395Z,75.00
2018-10-05T06:39:13.641Z,75.00
2018-10-05T06:41:41.763Z,75.10
2018-10-05T06:44:09.958Z,75.20
2018-10-05T06:46:38.203Z,75.40
2018-10-05T06:49:06.416Z,75.50
2018-10-05T06:51:34.626Z,75.60
2018-10-05T06:54:02.823Z,75.80
2018-10-05T06:56:31.046Z,75.90
2018-10-05T06:58:59.242Z,75.90
2018-10-05T07:01:27.489Z,76.10
2018-10-05T07:03:55.627Z,76.20
2018-10-05T07:06:23.837Z,76.50
2018-10-05T07:08:52.143Z,76.40
2018-10-05T07:11:20.436Z,76.40
2018-10-05T07:13:48.665Z,76.50
2018-10-05T07:16:16.896Z,76.70
2018-10-05T07:18:45.174Z,77.00
2018-10-05T07:21:13.416Z,77.30
2018-10-05T07:23:41.644Z,77.60
2018-10-05T07:26:09.898Z,77.50
2018-10-05T07:28:38.178Z,77.40
2018-10-05T07:31:07.371Z,77.30
2018-10-05T07:33:35.695Z,77.20
2018-10-05T07:36:03.948Z,77.20
2018-10-05T07:38:32.151Z,77.10
2018-10-05T07:41:00.498Z,76.70
2018-10-05T07:43:28.697Z,76.50
2018-10-05T07:45:56.944Z,76.00
2018-10-05T07:48:25.169Z,75.90
2018-10-05T07:50:53.370Z,75.60
2018-10-05T07:53:21.560Z,75.10
2018-10-05T07:55:49.787Z,74.80
2018-10-05T07:58:18.037Z,74.50
2018-10-05T08:00:46.270Z,74.40
2018-10-05T08:03:14.494Z,74.20
2018-10-05T08:05:42.757Z,74.20
2018-10-05T08:08:11.311Z,74.00
2018-10-05T08:10:39.530Z,73.40
2018-10-05T08:13:07.974Z,73.30
2018-10-05T08:15:36.719Z,73.30
2018-10-05T08:18:04.964Z,73.20
2018-10-05T08:20:33.172Z,72.90
2018-10-05T08:23:01.376Z,72.60
2018-10-05T08:25:29.608Z,72.70
2018-10-05T08:27:57.928Z,72.60
2018-10-05T08:30:26.119Z,72.40
2018-10-05T08:32:54.245Z,72.40
2018-10-05T08:35:22.418Z,72.30
2018-10-05T08:37:50.643Z,72.00
2018-10-05T08:40:18.899Z,71.80
2018-10-05T08:42:47.098Z,71.60
2018-10-05T08:45:15.439Z,71.10
2018-10-05T08:47:43.827Z,70.60
2018-10-05T08:50:11.981Z,70.40
2018-10-05T08:52:40.482Z,70.10
2018-10-05T08:55:08.937Z,69.40
2018-10-05T08:57:38.282Z,69.00
2018-10-05T09:00:06.828Z,68.60
2018-10-05T09:02:34.997Z,68.00
2018-10-05T09:05:03.289Z,67.50
2018-10-05T09:07:31.439Z,67.20
2018-10-05T09:09:59.722Z,67.40
2018-10-05T09:12:27.969Z,66.80
2018-10-05T09:14:56.367Z,66.70
2018-10-05T09:17:24.728Z,65.90
2018-10-05T09:19:53.060Z,65.60
2018-10-05T09:22:21.405Z,65.50
2018-10-05T09:24:49.890Z,65.20
2018-10-05T09:27:18.157Z,65.40
2018-10-05T09:29:46.712Z,65.50
2018-10-05T09:32:14.934Z,65.60
2018-10-05T09:34:43.160Z,65.00
2018-10-05T09:37:11.521Z,65.20
2018-10-05T09:39:39.701Z,65.40
2018-10-05T09:42:07.907Z,65.40
2018-10-05T09:44:36.115Z,65.10
2018-10-05T09:47:04.370Z,64.70
2018-10-05T09:49:32.600Z,64.50
2018-10-05T09:52:00.906Z,64.00
2018-10-05T09:54:29.113Z,63.80
2018-10-05T09:56:57.507Z,63.60
2018-10-05T09:59:25.904Z,63.60
2018-10-05T10:01:59.598Z,63.90
2018-10-05T10:04:27.781Z,63.00
2018-10-05T10:06:56.054Z,62.70
2018-10-05T10:09:24.338Z,62.40
2018-10-05T10:11:52.575Z,61.90
2018-10-05T10:14:20.775Z,61.70
2018-10-05T10:16:48.954Z,61.70
2018-10-05T10:19:17.273Z,61.40
2018-10-05T10:21:45.499Z,61.50
2018-10-05T10:24:13.742Z,61.60
2018-10-05T10:26:42.018Z,61.70
2018-10-05T10:29:10.384Z,61.60
2018-10-05T10:31:38.722Z,61.40
2018-10-05T10:34:07.052Z,61.00
2018-10-05T10:36:35.276Z,60.70
2018-10-05T10:39:04.755Z,60.60
2018-10-05T10:41:33.009Z,60.70
2018-10-05T10:44:01.208Z,60.50
2018-10-05T10:46:29.484Z,60.60
2018-10-05T10:48:57.741Z,60.60
2018-10-05T10:51:25.963Z,59.90
2018-10-05T10:53:54.203Z,59.50
2018-10-05T10:56:22.511Z,59.00
2018-10-05T10:58:50.690Z,58.80
2018-10-05T11:01:18.931Z,58.70
2018-10-05T11:03:47.146Z,58.50
2018-10-05T11:06:15.386Z,58.30
2018-10-05T11:08:43.671Z,58.00
2018-10-05T11:11:11.966Z,58.10
2018-10-05T11:13:40.125Z,58.10
2018-10-05T11:16:08.675Z,58.10
2018-10-05T11:18:36.952Z,57.60
2018-10-05T11:21:05.125Z,58.30
2018-10-05T11:23:33.317Z,58.50
2018-10-05T11:26:01.514Z,58.80
2018-10-05T11:28:29.767Z,58.80
2018-10-05T11:30:58.009Z,58.70
2018-10-05T11:33:26.654Z,58.60
2018-10-05T11:35:55.558Z,58.90
2018-10-05T11:38:23.826Z,58.00
2018-10-05T11:40:52.166Z,58.20
2018-10-05T11:43:20.338Z,58.40
2018-10-05T11:45:48.587Z,57.90
2018-10-05T11:48:16.764Z,57.30
2018-10-05T11:50:44.971Z,58.00
2018-10-05T11:53:14.056Z,58.20
2018-10-05T11:55:42.344Z,57.40
2018-10-05T11:58:10.670Z,57.20
2018-10-05T12:00:39.113Z,56.90
2018-10-05T12:03:07.311Z,56.80
2018-10-05T12:05:35.594Z,57.30
2018-10-05T12:08:03.800Z,56.80
2018-10-05T12:10:32.032Z,56.60
2018-10-05T12:13:00.514Z,56.20
2018-10-05T12:15:29.626Z,56.40
2018-10-05T12:17:57.827Z,56.60
2018-10-05T12:20:26.071Z,57.00
2018-10-05T12:22:54.338Z,56.60
2018-10-05T12:25:22.797Z,56.30
2018-10-05T12:27:51.094Z,56.40
2018-10-05T12:30:19.279Z,55.80
2018-10-05T12:32:47.458Z,55.60
2018-10-05T12:35:15.692Z,55.70
2018-10-05T12:37:43.960Z,55.80
2018-10-05T12:40:12.228Z,55.80
2018-10-05T12:42:40.454Z,55.70
2018-10-05T12:45:08.694Z,55.50
2018-10-05T12:47:37.093Z,55.30
2018-10-05T12:50:05.928Z,55.30
2018-10-05T12:52:34.125Z,55.40
2018-10-05T12:55:02.354Z,55.20
2018-10-05T12:57:30.955Z,55.30
2018-10-05T12:59:59.276Z,55.40
2018-10-05T13:02:27.490Z,55.00
2018-10-05T13:04:55.781Z,54.70
2018-10-05T13:07:24.007Z,54.70
2018-10-05T13:09:52.540Z,54.50
2018-10-05T13:12:20.812Z,54.50
2018-10-05T13:14:49.074Z,54.50
2018-10-05T13:17:17.326Z,54.80
2018-10-05T13:19:45.494Z,54.70
2018-10-05T13:22:13.676Z,54.50
2018-10-05T13:24:41.980Z,54.40
2018-10-05T13:27:10.118Z,54.30
2018-10-05T13:29:38.311Z,54.40
2018-10-05T13:32:06.661Z,54.30
2018-10-05T13:34:34.926Z,54.30
2018-10-05T13:37:03.276Z,54.20
2018-10-05T13:39:31.967Z,54.40
2018-10-05T13:42:02.484Z,54.20
2018-10-05T13:44:30.493Z,54.20
2018-10-05T13:46:58.680Z,54.20
2018-10-05T13:49:26.877Z,53.80
2018-10-05T13:51:55.167Z,53.60
2018-10-05T13:54:23.318Z,53.10
2018-10-05T13:56:51.526Z,53.20
2018-10-05T13:59:19.768Z,53.40
2018-10-05T14:01:47.976Z,53.30
2018-10-05T14:04:16.177Z,53.20
2018-10-05T14:06:44.451Z,53.20
2018-10-05T14:09:12.727Z,53.20
2018-10-05T14:11:40.919Z,53.20
2018-10-05T14:14:09.204Z,53.20
2018-10-05T14:16:37.445Z,52.60
2018-10-05T14:19:05.836Z,52.30
2018-10-05T14:21:34.049Z,51.30
2018-10-05T14:24:02.479Z,51.30
2018-10-05T14:26:30.703Z,51.60
2018-10-05T14:28:58.957Z,51.80
2018-10-05T14:31:27.166Z,51.90
2018-10-05T14:33:55.483Z,52.10
2018-10-05T14:36:23.658Z,52.10
2018-10-05T14:38:52.578Z,52.20
2018-10-05T14:41:21.059Z,51.90
2018-10-05T14:43:49.290Z,52.00
2018-10-05T14:46:18.083Z,52.20
2018-10-05T14:48:46.272Z,52.20
2018-10-05T14:51:14.515Z,52.10
2018-10-05T14:53:42.812Z,52.10
2018-10-05T14:56:11.042Z,51.80
2018-10-05T14:58:39.259Z,51.80
2018-10-05T15:01:07.474Z,52.00
2018-10-05T15:03:35.676Z,51.90
2018-10-05T15:06:03.950Z,52.00
2018-10-05T15:08:32.158Z,52.10
2018-10-05T15:11:00.426Z,52.10
2018-10-05T15:13:28.913Z,52.00
2018-10-05T15:15:57.147Z,51.80
2018-10-05T15:18:25.395Z,51.70
2018-10-05T15:20:53.615Z,51.60
2018-10-05T15:23:21.875Z,51.70
2018-10-05T15:25:50.086Z,51.70
2018-10-05T15:28:18.339Z,51.80
2018-10-05T15:30:46.537Z,51.80
2018-10-05T15:33:14.742Z,51.90
2018-10-05T15:35:43.110Z,51.90
2018-10-05T15:38:11.379Z,51.90
2018-10-05T15:40:39.804Z,52.00
2018-10-05T15:43:08.083Z,52.10
2018-10-05T15:45:36.305Z,52.00
2018-10-05T15:48:04.570Z,52.00
2018-10-05T15:50:32.839Z,52.20
2018-10-05T15:53:01.125Z,52.60
2018-10-05T15:55:29.280Z,52.60
2018-10-05T15:57:57.554Z,52.70
2018-10-05T16:00:25.784Z,52.70
2018-10-05T16:02:54.058Z,52.50
2018-10-05T16:05:24.944Z,52.70
2018-10-05T16:21:00.922Z,52.70
2018-10-05T16:23:29.966Z,52.60
2018-10-05T16:37:53.434Z,54.80
2018-10-05T16:40:53.095Z,55.30
2018-10-05T16:43:21.735Z,56.00
2018-10-05T16:46:15.710Z,56.50
2018-10-05T16:48:47.523Z,56.90
2018-10-05T16:51:30.288Z,57.00
2018-10-05T16:54:10.328Z,57.20
2018-10-05T16:56:41.177Z,57.50
2018-10-05T17:02:18.736Z,58.00
2018-10-05T17:05:22.281Z,58.20
2018-10-05T17:08:05.513Z,58.30
2018-10-05T17:24:57.079Z,58.80
2018-10-05T17:27:25.323Z,60.10
2018-10-05T17:29:53.555Z,61.30
2018-10-05T17:44:51.650Z,61.90
2018-10-05T17:50:23.484Z,63.50
2018-10-05T18:07:44.418Z,64.10
2018-10-05T18:10:12.627Z,64.90
2018-10-05T18:13:03.146Z,65.20
2018-10-05T18:15:31.545Z,65.40
2018-10-05T18:18:20.479Z,65.60
2018-10-05T18:36:36.351Z,65.70
2018-10-05T18:39:38.205Z,66.90
2018-10-05T18:42:06.486Z,67.30
2018-10-05T18:45:39.114Z,67.50
2018-10-05T18:48:07.781Z,67.70
2018-10-05T18:50:37.324Z,67.70
2018-10-05T18:53:05.611Z,67.70
2018-10-05T18:55:33.864Z,67.20
2018-10-05T18:58:02.123Z,66.80
2018-10-05T19:00:30.339Z,66.60
2018-10-05T19:02:59.356Z,66.60
2018-10-05T19:05:27.603Z,66.80
2018-10-05T19:07:55.854Z,66.90
2018-10-05T19:10:24.090Z,67.00
2018-10-05T19:12:52.377Z,67.00
2018-10-05T19:15:20.674Z,67.00
2018-10-05T19:17:48.933Z,67.10
2018-10-05T19:20:17.183Z,67.20
2018-10-05T19:22:45.541Z,67.30
2018-10-05T19:25:13.879Z,67.40
2018-10-05T19:27:42.149Z,67.50
2018-10-05T19:30:10.599Z,67.40
2018-10-05T19:32:38.877Z,67.50
2018-10-05T19:35:07.140Z,67.50
2018-10-05T19:37:35.344Z,67.60
2018-10-05T19:40:04.577Z,67.80
2018-10-05T19:42:32.840Z,67.40
2018-10-05T19:45:01.263Z,67.70
2018-10-05T19:47:29.582Z,67.60
2018-10-05T19:49:58.149Z,67.70
2018-10-05T19:52:26.440Z,67.80
2018-10-05T19:54:54.674Z,67.80
2018-10-05T19:57:22.922Z,68.00
2018-10-05T19:59:51.212Z,68.10
2018-10-05T20:02:19.446Z,68.40
2018-10-05T20:04:47.798Z,68.40
2018-10-05T20:07:16.027Z,68.50
2018-10-05T20:09:44.421Z,68.80
2018-10-05T20:12:12.667Z,68.90
2018-10-05T20:14:41.104Z,68.90
2018-10-05T20:17:09.333Z,69.00
2018-10-05T20:19:37.576Z,69.10
2018-10-05T20:22:07.540Z,69.20
2018-10-05T20:24:35.764Z,69.30
2018-10-05T20:27:04.854Z,69.50
2018-10-05T20:29:33.088Z,69.60
2018-10-05T20:32:01.327Z,69.70
2018-10-05T20:34:29.539Z,69.80
2018-10-05T20:36:57.962Z,70.00
2018-10-05T20:39:26.175Z,70.10
2018-10-05T20:41:54.502Z,70.10
2018-10-05T20:44:22.761Z,70.10
2018-10-05T20:46:50.894Z,70.30
2018-10-05T20:49:20.218Z,70.00
2018-10-05T20:51:48.556Z,69.70
2018-10-05T20:54:16.827Z,69.70
2018-10-05T20:56:45.062Z,69.50
2018-10-05T20:59:13.292Z,69.50
2018-10-05T21:01:41.551Z,69.60
2018-10-05T21:04:09.855Z,69.80
2018-10-05T21:06:38.023Z,70.10
2018-10-05T21:09:07.511Z,70.20
2018-10-05T21:11:35.739Z,70.30
2018-10-05T21:14:04.216Z,70.40
2018-10-05T21:16:32.535Z,70.50
2018-10-05T21:19:00.836Z,70.60
2018-10-05T21:21:29.141Z,70.90
2018-10-05T21:23:57.364Z,71.10
2018-10-05T21:26:25.590Z,71.10
2018-10-05T21:28:53.821Z,71.30
2018-10-05T21:31:22.358Z,71.30
2018-10-05T21:33:50.542Z,71.50
2018-10-05T21:36:18.871Z,71.50
2018-10-05T21:38:47.177Z,71.50
2018-10-05T21:41:15.380Z,71.50
2018-10-05T21:43:43.574Z,71.40
2018-10-05T21:46:11.758Z,71.50
2018-10-05T21:48:40.011Z,71.80
2018-10-05T21:51:08.245Z,71.90
2018-10-05T21:53:36.686Z,71.80
2018-10-05T21:56:04.892Z,71.80
2018-10-05T21:58:33.158Z,71.80
2018-10-05T22:01:01.386Z,71.90
2018-10-05T22:03:31.067Z,72.00
2018-10-05T22:05:59.948Z,72.10
2018-10-05T22:08:28.207Z,72.00
2018-10-05T22:10:56.451Z,72.00
2018-10-05T22:13:24.694Z,72.00
2018-10-05T22:15:52.911Z,71.90
2018-10-05T22:18:21.836Z,72.10
2018-10-05T22:20:50.053Z,72.30
2018-10-05T22:23:18.249Z,72.50
2018-10-05T22:25:46.491Z,72.50
2018-10-05T22:28:14.684Z,72.70
2018-10-05T22:30:42.937Z,72.70
2018-10-05T22:33:11.206Z,72.60
2018-10-05T22:35:39.464Z,72.40
2018-10-05T22:38:08.107Z,72.40
2018-10-05T22:40:36.311Z,72.30
2018-10-05T22:43:04.524Z,72.20
2018-10-05T22:45:32.797Z,72.30
2018-10-05T22:48:01.024Z,72.20
2018-10-05T22:50:29.250Z,72.30
2018-10-05T22:52:57.543Z,72.50
2018-10-05T22:55:25.736Z,72.60
2018-10-05T22:57:54.011Z,72.70
2018-10-05T23:00:22.193Z,72.70
2018-10-05T23:02:50.497Z,72.80
2018-10-05T23:05:18.730Z,72.80
2018-10-05T23:07:46.927Z,72.90
2018-10-05T23:10:15.124Z,73.00
2018-10-05T23:12:43.367Z,73.00
2018-10-05T23:15:11.555Z,73.10
2018-10-05T23:17:39.749Z,73.00
2018-10-05T23:20:08.031Z,73.10
2018-10-05T23:22:36.281Z,73.10
2018-10-05T23:25:04.645Z,73.00
2018-10-05T23:27:32.874Z,73.00
2018-10-05T23:30:01.086Z,73.00
2018-10-05T23:32:29.354Z,73.10
2018-10-05T23:34:57.586Z,73.20
2018-10-05T23:37:25.842Z,73.30
2018-10-05T23:39:54.111Z,73.50
2018-10-05T23:42:22.338Z,73.50
2018-10-05T23:44:50.593Z,73.40
2018-10-05T23:47:18.799Z,73.40
2018-10-05T23:49:47.064Z,73.30
2018-10-05T23:52:26.664Z,73.30
2018-10-05T23:54:54.953Z,73.30
2018-10-05T23:57:23.157Z,73.30
2018-10-05T23:59:51.431Z,73.30
